Wetterdaten: Woche 25.05.09 - 31.05.09 (KW22)
Datum Zeit Temp. Innen Temp. Aussen Feuchte Inne Feuchte Auss Luftdruck Regen ab 0,1 Wind
25.05.2009 00:00 22,5 C 17,1 C 50 % 59 % 1019,3 hPa 0,0 l/m 0,0 km/h (0 Bft)
25.05.2009 01:00 22,5 C 16,0 C 50 % 62 % 1019,3 hPa 0,0 l/m 0,0 km/h (0 Bft)
25.05.2009 02:00 22,4 C 15,1 C 50 % 65 % 1019,3 hPa 0,0 l/m 0,0 km/h (0 Bft)
25.05.2009 03:00 22,3 C 14,3 C 50 % 67 % 1019,4 hPa 0,0 l/m 0,0 km/h (0 Bft)
25.05.2009 04:00 22,2 C 13,8 C 50 % 69 % 1018,5 hPa 0,0 l/m 0,0 km/h (0 Bft)
25.05.2009 05:00 22,1 C 13,3 C 51 % 70 % 1018,4 hPa 0,0 l/m 0,0 km/h (0 Bft)
25.05.2009 06:00 22,0 C 13,5 C 51 % 74 % 1018,4 hPa 0,0 l/m 0,0 km/h (0 Bft)
25.05.2009 07:00 22,0 C 14,2 C 51 % 74 % 1018,3 hPa 0,0 l/m 0,0 km/h (0 Bft)
25.05.2009 08:00 21,9 C 15,6 C 52 % 73 % 1018,2 hPa 0,0 l/m 0,0 km/h (0 Bft)
25.05.2009 09:00 21,9 C 17,8 C 52 % 69 % 1018,3 hPa 0,0 l/m 0,0 km/h (0 Bft)
25.05.2009 10:00 21,9 C 20,7 C 53 % 64 % 1018,1 hPa 0,0 l/m 0,3 km/h (0 Bft)
25.05.2009 11:00 22,0 C 24,1 C 54 % 57 % 1017,0 hPa 0,0 l/m 0,0 km/h (0 Bft)
25.05.2009 12:00 22,0 C 27,0 C 54 % 49 % 1016,2 hPa 0,0 l/m 0,0 km/h (0 Bft)
25.05.2009 13:00 22,2 C 29,1 C 55 % 45 % 1015,6 hPa 0,0 l/m 0,0 km/h (0 Bft)
25.05.2009 14:00 22,8 C 31,2 C 54 % 43 % 1014,4 hPa 0,0 l/m 0,1 km/h (0 Bft)
25.05.2009 15:00 22,8 C 31,9 C 55 % 41 % 1014,1 hPa 0,0 l/m 0,0 km/h (0 Bft)
25.05.2009 16:00 22,9 C 30,8 C 56 % 43 % 1014,1 hPa 0,0 l/m 0,9 km/h (0 Bft)
25.05.2009 17:00 23,0 C 27,9 C 57 % 49 % 1012,2 hPa 0,0 l/m 5,0 km/h (1 Bft)
25.05.2009 18:00 23,0 C 25,2 C 57 % 55 % 1010,3 hPa 0,0 l/m 2,5 km/h (1 Bft)
25.05.2009 19:00 23,1 C 24,2 C 57 % 59 % 1011,2 hPa 0,0 l/m 0,0 km/h (0 Bft)
25.05.2009 20:00 23,2 C 23,6 C 56 % 59 % 1011,2 hPa 0,0 l/m 1,5 km/h (1 Bft)
25.05.2009 21:00 23,2 C 22,2 C 56 % 60 % 1010,5 hPa 0,0 l/m 0,0 km/h (0 Bft)
25.05.2009 22:00 23,2 C 20,6 C 56 % 64 % 1010,2 hPa 0,0 l/m 0,0 km/h (0 Bft)
25.05.2009 23:00 23,2 C 19,4 C 56 % 66 % 1010,2 hPa 0,0 l/m 0,0 km/h (0 Bft)
26.05.2009 00:00 23,2 C 18,6 C 56 % 68 % 1009,6 hPa 0,0 l/m 0,0 km/h (0 Bft)
26.05.2009 01:00 23,1 C 18,3 C 56 % 70 % 1009,0 hPa 0,0 l/m 0,0 km/h (0 Bft)
26.05.2009 02:00 23,1 C 17,8 C 57 % 73 % 1007,6 hPa 0,0 l/m 0,0 km/h (0 Bft)
26.05.2009 03:00 23,0 C 17,9 C 57 % 73 % 1007,1 hPa 0,0 l/m 0,0 km/h (0 Bft)
26.05.2009 04:00 23,0 C 18,4 C 57 % 75 % 1007,2 hPa 0,0 l/m 1,5 km/h (1 Bft)
26.05.2009 05:00 23,0 C 19,7 C 57 % 72 % 1007,8 hPa 0,0 l/m 0,2 km/h (0 Bft)
26.05.2009 06:00 23,0 C 18,9 C 57 % 71 % 1007,7 hPa 0,0 l/m 0,0 km/h (0 Bft)
26.05.2009 07:00 22,9 C 18,4 C 57 % 72 % 1008,2 hPa 0,0 l/m 0,0 km/h (0 Bft)
26.05.2009 08:00 22,9 C 18,7 C 57 % 71 % 1008,3 hPa 0,0 l/m 0,7 km/h (0 Bft)
26.05.2009 09:00 22,9 C 20,1 C 57 % 67 % 1009,1 hPa 0,0 l/m 2,1 km/h (1 Bft)
26.05.2009 10:00 22,9 C 20,8 C 57 % 66 % 1009,2 hPa 0,0 l/m 3,0 km/h (1 Bft)
26.05.2009 11:00 22,9 C 22,1 C 58 % 64 % 1009,2 hPa 0,0 l/m 4,5 km/h (1 Bft)
26.05.2009 12:00 23,0 C 22,7 C 58 % 60 % 1009,1 hPa 0,0 l/m 5,8 km/h (2 Bft)
26.05.2009 13:00 23,3 C 24,2 C 58 % 55 % 1008,6 hPa 0,0 l/m 5,2 km/h (1 Bft)
26.05.2009 14:00 23,2 C 23,5 C 57 % 54 % 1009,6 hPa 0,0 l/m 9,0 km/h (2 Bft)
26.05.2009 15:00 23,2 C 21,9 C 57 % 57 % 1010,4 hPa 0,0 l/m 6,2 km/h (2 Bft)
26.05.2009 16:00 23,2 C 17,9 C 58 % 71 % 1011,6 hPa 0,5 l/m 4,8 km/h (1 Bft)
26.05.2009 17:00 23,2 C 15,9 C 58 % 73 % 1013,3 hPa 0,0 l/m 2,7 km/h (1 Bft)
26.05.2009 18:00 23,1 C 15,5 C 56 % 70 % 1013,6 hPa 0,0 l/m 2,5 km/h (1 Bft)
26.05.2009 19:00 23,0 C 14,7 C 56 % 74 % 1014,8 hPa 0,5 l/m 1,6 km/h (1 Bft)
26.05.2009 20:00 23,1 C 13,2 C 54 % 78 % 1016,0 hPa 0,0 l/m 3,3 km/h (1 Bft)
26.05.2009 21:00 22,5 C 12,2 C 50 % 75 % 1017,5 hPa 0,0 l/m 1,0 km/h (0 Bft)
26.05.2009 22:00 22,2 C 11,2 C 51 % 75 % 1018,6 hPa 0,0 l/m 0,2 km/h (0 Bft)
26.05.2009 23:00 22,2 C 10,2 C 51 % 77 % 1019,4 hPa 0,0 l/m 0,0 km/h (0 Bft)
27.05.2009 00:00 22,1 C 9,6 C 51 % 80 % 1020,1 hPa 0,0 l/m 0,0 km/h (0 Bft)
27.05.2009 01:00 22,0 C 9,3 C 51 % 81 % 1020,4 hPa 0,0 l/m 0,0 km/h (0 Bft)
27.05.2009 02:00 21,8 C 9,3 C 51 % 81 % 1020,9 hPa 0,0 l/m 0,0 km/h (0 Bft)
27.05.2009 03:00 21,7 C 9,1 C 50 % 82 % 1021,4 hPa 0,0 l/m 0,0 km/h (0 Bft)
27.05.2009 04:00 21,5 C 8,8 C 50 % 82 % 1022,3 hPa 0,0 l/m 0,0 km/h (0 Bft)
27.05.2009 05:00 21,4 C 8,7 C 50 % 83 % 1022,5 hPa 0,0 l/m 0,0 km/h (0 Bft)
27.05.2009 06:00 21,2 C 8,7 C 50 % 84 % 1023,3 hPa 0,0 l/m 0,3 km/h (0 Bft)
27.05.2009 07:00 21,1 C 9,5 C 50 % 84 % 1023,5 hPa 0,0 l/m 0,0 km/h (0 Bft)
27.05.2009 08:00 20,9 C 10,7 C 50 % 82 % 1023,9 hPa 0,0 l/m 0,6 km/h (0 Bft)
27.05.2009 09:00 21,0 C 12,3 C 51 % 78 % 1024,4 hPa 0,0 l/m 1,2 km/h (1 Bft)
27.05.2009 10:00 21,0 C 14,0 C 51 % 70 % 1024,4 hPa 0,0 l/m 2,2 km/h (1 Bft)
27.05.2009 11:00 21,0 C 15,1 C 51 % 66 % 1024,4 hPa 0,0 l/m 2,9 km/h (1 Bft)
27.05.2009 12:00 20,7 C 16,0 C 46 % 60 % 1024,3 hPa 0,0 l/m 2,9 km/h (1 Bft)
27.05.2009 13:00 20,4 C 16,0 C 45 % 57 % 1024,3 hPa 0,0 l/m 4,3 km/h (1 Bft)
27.05.2009 14:00 20,6 C 16,3 C 46 % 53 % 1024,3 hPa 0,0 l/m 1,6 km/h (1 Bft)
27.05.2009 15:00 21,0 C 17,1 C 47 % 50 % 1024,2 hPa 0,0 l/m 4,6 km/h (1 Bft)
27.05.2009 16:00 21,1 C 16,7 C 45 % 49 % 1023,7 hPa 0,0 l/m 3,0 km/h (1 Bft)
27.05.2009 17:00 21,2 C 16,5 C 45 % 51 % 1023,3 hPa 0,0 l/m 4,1 km/h (1 Bft)
27.05.2009 18:00 21,2 C 15,2 C 45 % 55 % 1023,4 hPa 0,0 l/m 2,3 km/h (1 Bft)
27.05.2009 19:00 21,2 C 13,1 C 47 % 68 % 1023,7 hPa 0,0 l/m 1,3 km/h (1 Bft)
27.05.2009 20:00 21,2 C 12,6 C 48 % 69 % 1023,4 hPa 0,0 l/m 2,6 km/h (1 Bft)
27.05.2009 21:00 21,1 C 12,4 C 48 % 70 % 1023,4 hPa 0,0 l/m 0,7 km/h (0 Bft)
27.05.2009 22:00 21,0 C 12,4 C 48 % 71 % 1023,0 hPa 0,0 l/m 0,5 km/h (0 Bft)
27.05.2009 23:00 21,0 C 12,4 C 48 % 70 % 1023,4 hPa 0,0 l/m 1,2 km/h (1 Bft)
28.05.2009 00:00 20,9 C 12,3 C 48 % 72 % 1022,7 hPa 0,0 l/m 3,3 km/h (1 Bft)
28.05.2009 01:00 20,8 C 11,7 C 49 % 77 % 1022,5 hPa 0,0 l/m 1,8 km/h (1 Bft)
28.05.2009 02:00 20,8 C 11,3 C 50 % 81 % 1022,4 hPa 0,0 l/m 1,3 km/h (1 Bft)
28.05.2009 03:00 20,8 C 11,8 C 50 % 81 % 1022,4 hPa 0,0 l/m 2,1 km/h (1 Bft)
28.05.2009 04:00 20,8 C 12,2 C 51 % 81 % 1022,4 hPa 0,0 l/m 1,5 km/h (1 Bft)
28.05.2009 05:00 20,7 C 12,5 C 51 % 81 % 1023,0 hPa 0,0 l/m 1,0 km/h (0 Bft)
28.05.2009 06:00 20,7 C 12,8 C 52 % 82 % 1023,4 hPa 0,0 l/m 0,3 km/h (0 Bft)
28.05.2009 07:00 20,6 C 13,0 C 54 % 84 % 1023,5 hPa 0,0 l/m 0,3 km/h (0 Bft)
28.05.2009 08:00 20,7 C 13,6 C 54 % 84 % 1024,4 hPa 0,0 l/m 0,7 km/h (0 Bft)
28.05.2009 09:00 20,7 C 14,4 C 55 % 83 % 1025,1 hPa 0,0 l/m 0,0 km/h (0 Bft)
28.05.2009 10:00 20,8 C 15,2 C 55 % 82 % 1025,4 hPa 0,0 l/m 0,5 km/h (0 Bft)
28.05.2009 11:00 20,8 C 15,9 C 56 % 80 % 1025,4 hPa 0,0 l/m 0,4 km/h (0 Bft)
28.05.2009 12:00 20,9 C 15,5 C 57 % 82 % 1026,4 hPa 2,1 l/m 0,5 km/h (0 Bft)
28.05.2009 13:00 21,0 C 17,3 C 58 % 83 % 1026,3 hPa 0,0 l/m 1,9 km/h (1 Bft)
28.05.2009 14:00 21,2 C 19,4 C 58 % 72 % 1026,3 hPa 0,0 l/m 3,1 km/h (1 Bft)
28.05.2009 15:00 21,2 C 19,5 C 57 % 63 % 1026,3 hPa 0,0 l/m 3,3 km/h (1 Bft)
28.05.2009 16:00 21,6 C 21,6 C 54 % 54 % 1026,9 hPa 0,0 l/m 3,1 km/h (1 Bft)
28.05.2009 17:00 22,0 C 22,1 C 53 % 50 % 1027,3 hPa 0,0 l/m 5,1 km/h (1 Bft)
28.05.2009 18:00 22,0 C 20,5 C 52 % 51 % 1027,8 hPa 0,0 l/m 4,2 km/h (1 Bft)
28.05.2009 19:00 22,0 C 19,0 C 51 % 55 % 1028,3 hPa 0,0 l/m 0,2 km/h (0 Bft)
28.05.2009 20:00 22,0 C 17,9 C 51 % 58 % 1028,3 hPa 0,0 l/m 0,1 km/h (0 Bft)
28.05.2009 21:00 22,0 C 16,9 C 51 % 61 % 1029,2 hPa 0,0 l/m 0,0 km/h (0 Bft)
28.05.2009 22:00 22,0 C 15,4 C 51 % 63 % 1030,1 hPa 0,0 l/m 0,0 km/h (0 Bft)
28.05.2009 23:00 21,9 C 14,0 C 50 % 66 % 1030,4 hPa 0,0 l/m 0,0 km/h (0 Bft)
29.05.2009 00:00 21,8 C 12,8 C 50 % 69 % 1031,0 hPa 0,0 l/m 0,0 km/h (0 Bft)
29.05.2009 01:00 21,8 C 11,4 C 50 % 71 % 1031,4 hPa 0,0 l/m 0,0 km/h (0 Bft)
29.05.2009 02:00 21,6 C 10,1 C 50 % 74 % 1031,5 hPa 0,0 l/m 0,0 km/h (0 Bft)
29.05.2009 03:00 21,5 C 9,1 C 50 % 76 % 1031,5 hPa 0,0 l/m 0,0 km/h (0 Bft)
29.05.2009 04:00 21,3 C 8,2 C 50 % 78 % 1031,5 hPa 0,0 l/m 0,0 km/h (0 Bft)
29.05.2009 05:00 21,3 C 7,5 C 49 % 79 % 1031,5 hPa 0,0 l/m 0,0 km/h (0 Bft)
29.05.2009 06:00 21,1 C 7,0 C 48 % 80 % 1031,5 hPa 0,0 l/m 0,0 km/h (0 Bft)
29.05.2009 07:00 20,7 C 8,0 C 48 % 82 % 1032,2 hPa 0,0 l/m 0,0 km/h (0 Bft)
29.05.2009 08:00 20,4 C 10,9 C 47 % 78 % 1032,5 hPa 0,0 l/m 0,0 km/h (0 Bft)
29.05.2009 09:00 20,2 C 13,0 C 45 % 66 % 1032,4 hPa 0,0 l/m 0,4 km/h (0 Bft)
29.05.2009 10:00 20,2 C 15,0 C 43 % 56 % 1032,4 hPa 0,0 l/m 1,3 km/h (1 Bft)
29.05.2009 11:00 20,4 C 17,4 C 42 % 50 % 1032,4 hPa 0,0 l/m 7,9 km/h (2 Bft)
29.05.2009 12:00 20,4 C 19,0 C 40 % 44 % 1031,7 hPa 0,0 l/m 7,1 km/h (2 Bft)
29.05.2009 13:00 20,4 C 20,5 C 40 % 42 % 1031,3 hPa 0,0 l/m 1,3 km/h (1 Bft)
29.05.2009 14:00 20,7 C 22,4 C 40 % 38 % 1030,7 hPa 0,0 l/m 0,0 km/h (0 Bft)
29.05.2009 15:00 20,9 C 23,6 C 39 % 35 % 1030,3 hPa 0,0 l/m 0,1 km/h (0 Bft)
29.05.2009 16:00 21,4 C 24,1 C 38 % 32 % 1029,2 hPa 0,0 l/m 0,1 km/h (0 Bft)
29.05.2009 17:00 21,8 C 24,3 C 37 % 32 % 1028,5 hPa 0,0 l/m 0,1 km/h (0 Bft)
29.05.2009 18:00 22,0 C 22,7 C 38 % 35 % 1028,3 hPa 0,0 l/m 3,3 km/h (1 Bft)
29.05.2009 19:00 22,2 C 21,2 C 39 % 39 % 1028,3 hPa 0,0 l/m 0,0 km/h (0 Bft)
29.05.2009 20:00 22,3 C 19,5 C 39 % 42 % 1028,3 hPa 0,0 l/m 0,0 km/h (0 Bft)
29.05.2009 21:00 23,0 C 18,0 C 38 % 49 % 1028,8 hPa 0,7 l/m 0,0 km/h (0 Bft)
29.05.2009 22:00 23,0 C 16,9 C 39 % 52 % 1028,9 hPa 0,0 l/m 0,0 km/h (0 Bft)
29.05.2009 23:00 22,7 C 14,0 C 40 % 61 % 1028,8 hPa 0,0 l/m 0,0 km/h (0 Bft)
30.05.2009 00:00 22,5 C 13,2 C 40 % 61 % 1028,6 hPa 0,0 l/m 0,0 km/h (0 Bft)
30.05.2009 01:00 21,6 C 12,9 C 41 % 64 % 1027,9 hPa 0,0 l/m 0,1 km/h (0 Bft)
30.05.2009 02:00 20,9 C 13,0 C 42 % 63 % 1027,8 hPa 0,0 l/m 0,2 km/h (0 Bft)
30.05.2009 03:00 20,5 C 12,6 C 42 % 63 % 1027,5 hPa 0,0 l/m 0,0 km/h (0 Bft)
30.05.2009 04:00 20,2 C 11,8 C 43 % 66 % 1027,0 hPa 0,0 l/m 0,0 km/h (0 Bft)
30.05.2009 05:00 20,0 C 11,1 C 44 % 69 % 1027,2 hPa 0,0 l/m 0,0 km/h (0 Bft)
30.05.2009 06:00 20,3 C 10,6 C 44 % 73 % 1027,4 hPa 0,0 l/m 0,0 km/h (0 Bft)
30.05.2009 07:00 20,4 C 11,0 C 44 % 75 % 1027,6 hPa 0,0 l/m 0,0 km/h (0 Bft)
30.05.2009 08:00 20,1 C 12,5 C 45 % 72 % 1027,6 hPa 0,0 l/m 0,2 km/h (0 Bft)
30.05.2009 09:00 19,9 C 14,7 C 46 % 66 % 1027,6 hPa 0,0 l/m 0,3 km/h (0 Bft)
30.05.2009 10:00 20,0 C 17,7 C 46 % 57 % 1027,2 hPa 0,0 l/m 0,7 km/h (0 Bft)
30.05.2009 11:00 20,2 C 20,4 C 46 % 48 % 1026,6 hPa 0,0 l/m 1,0 km/h (0 Bft)
30.05.2009 12:00 20,5 C 22,5 C 45 % 41 % 1026,2 hPa 0,0 l/m 1,5 km/h (1 Bft)
30.05.2009 13:00 21,0 C 23,8 C 43 % 36 % 1025,6 hPa 0,0 l/m 2,1 km/h (1 Bft)
30.05.2009 14:00 21,8 C 24,8 C 40 % 33 % 1026,0 hPa 0,0 l/m 1,7 km/h (1 Bft)
30.05.2009 15:00 23,2 C 25,5 C 38 % 32 % 1027,8 hPa 0,0 l/m 1,5 km/h (1 Bft)
30.05.2009 16:00 24,6 C 26,0 C 36 % 32 % 1029,2 hPa 0,0 l/m 1,2 km/h (1 Bft)
30.05.2009 17:00 25,6 C 25,7 C 34 % 32 % 1029,0 hPa 0,0 l/m 1,3 km/h (1 Bft)
30.05.2009 18:00 25,2 C 23,8 C 35 % 37 % 1026,1 hPa 0,0 l/m 0,4 km/h (0 Bft)
30.05.2009 19:00 24,3 C 22,2 C 37 % 41 % 1024,4 hPa 0,0 l/m 0,6 km/h (0 Bft)
30.05.2009 20:00 23,7 C 20,7 C 39 % 45 % 1023,9 hPa 0,0 l/m 0,4 km/h (0 Bft)
30.05.2009 21:00 23,1 C 19,3 C 40 % 50 % 1023,8 hPa 0,0 l/m 0,2 km/h (0 Bft)
30.05.2009 22:00 22,7 C 17,9 C 43 % 57 % 1023,8 hPa 0,0 l/m 0,0 km/h (0 Bft)
30.05.2009 23:00 22,3 C 16,5 C 45 % 63 % 1023,5 hPa 0,0 l/m 0,0 km/h (0 Bft)
31.05.2009 00:00 21,9 C 15,4 C 46 % 68 % 1023,3 hPa 0,0 l/m 0,0 km/h (0 Bft)
31.05.2009 01:00 21,7 C 14,5 C 47 % 71 % 1023,1 hPa 0,0 l/m 0,0 km/h (0 Bft)
31.05.2009 02:00 21,2 C 13,5 C 49 % 74 % 1022,5 hPa 0,0 l/m 0,0 km/h (0 Bft)
31.05.2009 03:00 20,9 C 12,6 C 50 % 78 % 1022,4 hPa 0,0 l/m 0,0 km/h (0 Bft)
31.05.2009 04:00 20,7 C 12,7 C 51 % 80 % 1022,1 hPa 0,0 l/m 0,0 km/h (0 Bft)
31.05.2009 05:00 20,6 C 13,0 C 52 % 81 % 1022,2 hPa 0,0 l/m 0,0 km/h (0 Bft)
31.05.2009 06:00 20,5 C 13,4 C 52 % 81 % 1022,3 hPa 0,0 l/m 0,0 km/h (0 Bft)
31.05.2009 07:00 20,4 C 14,1 C 53 % 79 % 1022,5 hPa 0,0 l/m 0,1 km/h (0 Bft)
31.05.2009 08:00 20,5 C 15,1 C 54 % 79 % 1022,8 hPa 0,0 l/m 0,1 km/h (0 Bft)
31.05.2009 09:00 20,7 C 17,2 C 55 % 73 % 1023,4 hPa 0,0 l/m 0,3 km/h (0 Bft)
31.05.2009 10:00 20,9 C 19,7 C 55 % 65 % 1023,2 hPa 0,0 l/m 0,5 km/h (0 Bft)
31.05.2009 11:00 21,2 C 21,7 C 54 % 58 % 1023,0 hPa 0,0 l/m 0,8 km/h (0 Bft)
31.05.2009 12:00 21,5 C 22,9 C 53 % 54 % 1023,3 hPa 0,0 l/m 0,9 km/h (0 Bft)
31.05.2009 13:00 22,0 C 24,5 C 52 % 48 % 1023,3 hPa 0,0 l/m 1,0 km/h (0 Bft)
31.05.2009 14:00 22,5 C 24,7 C 50 % 46 % 1023,6 hPa 0,0 l/m 1,2 km/h (1 Bft)
31.05.2009 15:00 23,3 C 25,2 C 48 % 43 % 1024,4 hPa 0,0 l/m 1,2 km/h (1 Bft)
31.05.2009 16:00 24,2 C 25,5 C 46 % 42 % 1025,3 hPa 0,0 l/m 0,8 km/h (0 Bft)
31.05.2009 17:00 24,4 C 25,3 C 44 % 42 % 1024,2 hPa 0,0 l/m 0,6 km/h (0 Bft)
31.05.2009 18:00 24,3 C 24,3 C 44 % 42 % 1023,2 hPa 0,0 l/m 0,8 km/h (0 Bft)
31.05.2009 19:00 23,9 C 23,4 C 44 % 43 % 1022,3 hPa 0,0 l/m 0,3 km/h (0 Bft)
31.05.2009 20:00 23,5 C 22,3 C 44 % 46 % 1022,1 hPa 0,0 l/m 0,0 km/h (0 Bft)
31.05.2009 21:00 23,2 C 21,1 C 45 % 50 % 1022,3 hPa 0,0 l/m 0,0 km/h (0 Bft)
31.05.2009 22:00 22,9 C 19,4 C 46 % 56 % 1022,3 hPa 0,0 l/m 0,0 km/h (0 Bft)
31.05.2009 23:00 22,5 C 17,7 C 48 % 62 % 1022,8 hPa 0,0 l/m 0,0 km/h (0 Bft)
Min-Datum _ 30.05.09 29.05.09 30.05.09 29.05.09 26.05.09 - 25.05.09
_ Min-Zeit 05:26 06:22 17:18 15:58 03:54 - 00:00
Minimum _ 19,9 C 6,9 C 34 % 31 % 1006,2 hPa - 0,0 km/h (0 Bft)
Max-Datum _ 30.05.09 25.05.09 26.05.09 27.05.09 29.05.09 28.05.09 29.05.09
_ Max-Zeit 17:44 14:50 12:36 07:34 07:20 12:02 11:58
Maximum _ 25,8 C 31,9 C 59 % 85 % 1032,5 hPa 2,1 l/m 34,4 km/h
W (5 Bft)
Durchschnitt _ 21,9 C 17,2 C 49 % 63 % 1022,2 hPa #3,8 l/m 1,1 km/h (0 Bft)
© 2012 W. Hausmann